Time;durP1;ratioP1;P1;durP2;ratioP2;P2;SDS_P1;SDS_P2;PMS_P1;PMS_P2;Temp;Humidity;BMP_temperature;BMP_pressure;BME280_temperature;BME280_humidity;BME280_pressure;Samples;Min_cycle;Max_cycle;Signal;HPM_P1;HPM_P2
2021/06/05 00:01:09;;;;;;;;;;;16.80;99.90;;;;;;10518372;28;19934;-60
2021/06/05 00:06:14;;;;;;;;;;;16.70;99.90;;;;;;10521817;28;20014;-59
2021/06/05 00:11:16;;;;;;;;;;;16.60;99.90;;;;;;10501487;28;19986;-59
2021/06/05 00:16:20;;;;;;;;;;;16.70;99.90;;;;;;10522484;28;19928;-59
2021/06/05 00:21:23;;;;;;;;;;;16.70;99.90;;;;;;10509274;28;19932;-59
2021/06/05 00:26:25;;;;;;;;;;;16.70;99.90;;;;;;10526708;28;20445;-59
2021/06/05 00:31:27;;;;;;;;;;;16.60;99.90;;;;;;10528189;28;20023;-60
2021/06/05 00:36:29;;;;;;;;;;;16.50;99.90;;;;;;10505339;28;19946;-60
2021/06/05 00:41:31;;;;;;;;;;;16.40;99.90;;;;;;10502043;28;20015;-60
2021/06/05 00:46:33;;;;;;;;;;;16.40;99.90;;;;;;10490839;28;20015;-59
2021/06/05 00:51:43;;;;;;;;;;;16.40;99.90;;;;;;10515892;28;19928;-59
2021/06/05 00:56:51;;;;;;;;;;;16.50;99.90;;;;;;10490307;28;19950;-59
2021/06/05 01:01:53;;;;;;;;;;;16.40;99.90;;;;;;10491411;28;19937;-59
2021/06/05 01:07:02;;;;;;;;;;;16.30;99.90;;;;;;10494507;28;20396;-59
2021/06/05 01:12:14;;;;;;;;;;;16.20;99.90;;;;;;10510227;28;19928;-59
2021/06/05 01:17:19;;;;;;;;;;;16.20;99.90;;;;;;10508119;28;19925;-59
2021/06/05 01:22:27;;;;;;;;;;;16.20;99.90;;;;;;10529363;28;19924;-59
2021/06/05 01:27:30;;;;;;;;;;;16.10;99.90;;;;;;10488922;28;19935;-60
2021/06/05 01:32:33;;;;;;;;;;;16.10;99.90;;;;;;10491040;28;20018;-59
2021/06/05 01:37:37;;;;;;;;;;;16.00;99.90;;;;;;10488811;28;20023;-60
2021/06/05 01:42:40;;;;;;;;;;;16.00;99.90;;;;;;10488484;28;20002;-59
2021/06/05 01:47:42;;;;;;;;;;;16.00;99.90;;;;;;10527900;28;19924;-60
2021/06/05 01:52:44;;;;;;;;;;;16.00;99.90;;;;;;10527778;28;20022;-59
2021/06/05 01:57:50;;;;;;;;;;;15.90;99.90;;;;;;10528082;28;19930;-59
2021/06/05 02:02:52;;;;;;;;;;;15.70;99.90;;;;;;10520123;28;19963;-59
2021/06/05 02:07:55;;;;;;;;;;;15.70;99.90;;;;;;10534419;28;19925;-61
2021/06/05 02:12:57;;;;;;;;;;;15.70;99.90;;;;;;10517145;28;19935;-60
2021/06/05 02:18:00;;;;;;;;;;;15.60;99.90;;;;;;10527210;28;20408;-59
2021/06/05 02:23:04;;;;;;;;;;;15.50;99.90;;;;;;10502026;28;20019;-60
2021/06/05 02:28:07;;;;;;;;;;;15.50;99.90;;;;;;10506519;28;19972;-59
2021/06/05 02:33:08;;;;;;;;;;;15.50;99.90;;;;;;10507280;28;20003;-60
2021/06/05 02:38:11;;;;;;;;;;;15.50;99.90;;;;;;10513829;28;20019;-59
2021/06/05 02:43:24;;;;;;;;;;;15.50;99.90;;;;;;10499713;28;19929;-60
2021/06/05 02:48:46;;;;;;;;;;;15.50;99.90;;;;;;10530530;28;20023;-59
2021/06/05 02:53:48;;;;;;;;;;;15.50;99.90;;;;;;10529596;28;20022;-59
2021/06/05 02:58:50;;;;;;;;;;;15.50;99.90;;;;;;10528915;28;20402;-60
2021/06/05 03:03:52;;;;;;;;;;;15.50;99.90;;;;;;10509360;28;20393;-62
2021/06/05 03:08:54;;;;;;;;;;;15.70;99.90;;;;;;10504590;28;19978;-59
2021/06/05 03:13:56;;;;;;;;;;;15.70;99.90;;;;;;10526225;28;19971;-59
2021/06/05 03:18:57;;;;;;;;;;;15.70;99.90;;;;;;10499968;28;19934;-59
2021/06/05 03:23:59;;;;;;;;;;;15.70;99.90;;;;;;10502493;28;19924;-59
2021/06/05 03:29:03;;;;;;;;;;;15.50;99.90;;;;;;10533143;28;19997;-59
2021/06/05 03:34:04;;;;;;;;;;;15.60;99.90;;;;;;10507530;28;19986;-59
2021/06/05 03:39:06;;;;;;;;;;;15.60;99.90;;;;;;10525501;28;20385;-59
2021/06/05 03:44:08;;;;;;;;;;;15.80;99.90;;;;;;10501250;28;20019;-59
2021/06/05 03:49:10;;;;;;;;;;;15.70;99.90;;;;;;10521543;28;20322;-59
2021/06/05 03:54:12;;;;;;;;;;;15.70;99.90;;;;;;10501448;28;19938;-60
2021/06/05 03:59:14;;;;;;;;;;;15.80;99.90;;;;;;10523970;28;20023;-59
2021/06/05 04:04:16;;;;;;;;;;;15.90;99.90;;;;;;10514292;28;19924;-59
2021/06/05 04:09:18;;;;;;;;;;;16.10;99.90;;;;;;10507942;28;20422;-59
2021/06/05 04:14:20;;;;;;;;;;;16.10;99.90;;;;;;10525265;28;20402;-59
2021/06/05 04:19:21;;;;;;;;;;;16.20;99.90;;;;;;10510928;28;20014;-59
2021/06/05 04:24:23;;;;;;;;;;;16.50;99.90;;;;;;10504362;28;20331;-59
2021/06/05 04:29:25;;;;;;;;;;;16.50;99.90;;;;;;10509419;28;20023;-60
2021/06/05 04:34:27;;;;;;;;;;;16.60;99.90;;;;;;10520312;28;20011;-59
2021/06/05 04:39:29;;;;;;;;;;;16.70;99.90;;;;;;10517313;28;20394;-59
2021/06/05 04:44:31;;;;;;;;;;;16.80;99.90;;;;;;10505671;28;19931;-59
2021/06/05 04:49:33;;;;;;;;;;;16.80;99.90;;;;;;10491200;28;19924;-59
2021/06/05 04:54:35;;;;;;;;;;;16.80;99.90;;;;;;10530052;28;20018;-59
2021/06/05 04:59:37;;;;;;;;;;;16.70;99.90;;;;;;10503100;28;20015;-59
2021/06/05 05:04:43;;;;;;;;;;;16.70;99.90;;;;;;10518714;28;19930;-59
2021/06/05 05:09:45;;;;;;;;;;;16.60;99.90;;;;;;10528190;28;20475;-59
2021/06/05 05:14:47;;;;;;;;;;;16.70;99.90;;;;;;10512558;28;20015;-60
2021/06/05 05:19:48;;;;;;;;;;;16.60;99.90;;;;;;10491378;28;19931;-60
2021/06/05 05:24:50;;;;;;;;;;;16.80;99.90;;;;;;10505888;28;20007;-59
2021/06/05 05:29:55;;;;;;;;;;;16.70;99.90;;;;;;10519336;28;19935;-59
2021/06/05 05:34:56;;;;;;;;;;;16.90;99.90;;;;;;10511832;28;20453;-59
2021/06/05 05:39:59;;;;;;;;;;;16.90;99.90;;;;;;10492550;28;19931;-59
2021/06/05 05:45:01;;;;;;;;;;;17.00;99.90;;;;;;10489514;28;20372;-59
2021/06/05 05:50:04;;;;;;;;;;;17.10;99.90;;;;;;10492355;28;19924;-58
2021/06/05 05:55:07;;;;;;;;;;;17.10;99.90;;;;;;10513829;28;19971;-58
2021/06/05 06:00:13;;;;;;;;;;;17.10;99.90;;;;;;10498398;28;20015;-59
2021/06/05 06:05:15;;;;;;;;;;;17.10;99.90;;;;;;10496198;28;20420;-58
2021/06/05 06:10:18;;;;;;;;;;;17.20;99.90;;;;;;10507788;28;20009;-58
2021/06/05 06:15:22;;;;;;;;;;;17.30;99.90;;;;;;10507302;28;19924;-58
2021/06/05 06:20:26;;;;;;;;;;;17.30;99.90;;;;;;10514775;28;19928;-58
2021/06/05 06:25:31;;;;;;;;;;;17.40;99.90;;;;;;10499939;28;19964;-58
2021/06/05 06:30:34;;;;;;;;;;;17.40;99.90;;;;;;10496094;28;19931;-58
2021/06/05 06:35:36;;;;;;;;;;;17.60;99.90;;;;;;10493155;28;20382;-58
2021/06/05 06:40:39;;;;;;;;;;;17.60;99.90;;;;;;10488017;28;20147;-58
2021/06/05 06:45:41;;;;;;;;;;;17.80;99.90;;;;;;10527600;28;20190;-58
2021/06/05 06:50:43;;;;;;;;;;;18.00;99.90;;;;;;10502316;28;19932;-59
2021/06/05 06:55:45;;;;;;;;;;;18.20;99.90;;;;;;10508273;28;20011;-58
2021/06/05 07:00:47;;;;;;;;;;;18.40;99.90;;;;;;10532606;28;19931;-58
2021/06/05 07:05:49;;;;;;;;;;;18.50;99.90;;;;;;10533538;28;20049;-58
2021/06/05 07:10:55;;;;;;;;;;;18.40;99.90;;;;;;10508843;28;20204;-58
2021/06/05 07:15:58;;;;;;;;;;;18.50;99.90;;;;;;10516291;28;19924;-59
2021/06/05 07:21:01;;;;;;;;;;;18.40;99.90;;;;;;10534563;28;19954;-58
2021/06/05 07:26:05;;;;;;;;;;;19.10;99.90;;;;;;10534115;28;20395;-59
2021/06/05 07:31:08;;;;;;;;;;;19.40;99.90;;;;;;10535399;28;20329;-59
2021/06/05 07:36:20;;;;;;;;;;;19.60;99.90;;;;;;10535355;28;19924;-60
2021/06/05 07:41:22;;;;;;;;;;;19.70;99.90;;;;;;10535088;28;20018;-60
2021/06/05 07:46:24;;;;;;;;;;;19.50;99.90;;;;;;10508852;28;19948;-59
2021/06/05 07:51:26;;;;;;;;;;;19.50;99.90;;;;;;10491772;28;19928;-59
2021/06/05 07:56:27;;;;;;;;;;;19.40;99.90;;;;;;10496849;28;19924;-59
2021/06/05 08:01:29;;;;;;;;;;;19.40;99.90;;;;;;10486164;28;19928;-59
2021/06/05 08:06:32;;;;;;;;;;;19.30;99.90;;;;;;10531998;28;19928;-59
2021/06/05 08:11:34;;;;;;;;;;;19.10;99.90;;;;;;10529776;28;20007;-59
2021/06/05 08:16:37;;;;;;;;;;;19.20;99.90;;;;;;10507511;28;19981;-69
2021/06/05 08:21:40;;;;;;;;;;;19.20;99.90;;;;;;10492238;28;19925;-69
2021/06/05 08:26:42;;;;;;;;;;;19.20;99.90;;;;;;10516834;28;19930;-69
2021/06/05 08:31:44;;;;;;;;;;;19.10;99.90;;;;;;10492014;28;20044;-69
2021/06/05 08:36:46;;;;;;;;;;;19.10;99.90;;;;;;10514609;28;19975;-69
2021/06/05 08:41:51;;;;;;;;;;;19.10;99.90;;;;;;10519803;28;20011;-69
2021/06/05 08:46:58;;;;;;;;;;;19.20;99.90;;;;;;10505537;28;19924;-69
2021/06/05 08:52:26;;;;;;;;;;;19.30;99.90;;;;;;10526340;28;19995;-69
2021/06/05 08:57:33;;;;;;;;;;;19.20;99.90;;;;;;10491155;28;20023;-69
2021/06/05 09:02:35;;;;;;;;;;;19.30;99.90;;;;;;10502668;28;20375;-69
2021/06/05 09:07:38;;;;;;;;;;;19.40;99.90;;;;;;10528343;28;19932;-69
2021/06/05 09:12:40;;;;;;;;;;;19.40;99.90;;;;;;10488791;28;20425;-69
2021/06/05 09:17:46;;;;;;;;;;;19.70;99.90;;;;;;10506152;28;20031;-67
2021/06/05 09:22:48;;;;;;;;;;;20.20;99.90;;;;;;10529914;28;20014;-68
2021/06/05 09:27:50;;;;;;;;;;;20.10;99.90;;;;;;10505611;28;20291;-67
2021/06/05 09:32:55;;;;;;;;;;;20.30;99.90;;;;;;10504290;28;19928;-68
2021/06/05 09:38:16;;;;;;;;;;;20.70;99.90;;;;;;10519639;28;19971;-68
2021/06/05 09:43:21;;;;;;;;;;;21.00;99.90;;;;;;10529983;28;20417;-68
2021/06/05 09:48:27;;;;;;;;;;;21.00;99.90;;;;;;10530192;28;19976;-68
2021/06/05 09:53:34;;;;;;;;;;;21.00;99.90;;;;;;10529928;28;20038;-69
2021/06/05 09:58:42;;;;;;;;;;;20.80;99.90;;;;;;10530068;28;19924;-69
2021/06/05 10:03:45;;;;;;;;;;;20.90;99.90;;;;;;10510423;28;19928;-69
2021/06/05 10:08:47;;;;;;;;;;;21.50;99.90;;;;;;10524081;28;20512;-69
2021/06/05 10:13:56;;;;;;;;;;;21.60;99.90;;;;;;10521682;28;19950;-69
2021/06/05 10:19:06;;;;;;;;;;;21.40;99.90;;;;;;10528837;28;20015;-68
2021/06/05 10:24:23;;;;;;;;;;;21.30;99.90;;;;;;10529667;28;19979;-69
2021/06/05 10:29:43;;;;;;;;;;;21.20;99.90;;;;;;10537950;28;19924;-69
2021/06/05 10:34:48;;;;;;;;;;;21.30;99.90;;;;;;10519015;28;19990;-68
2021/06/05 10:39:51;;;;;;;;;;;21.60;99.90;;;;;;10495805;28;20014;-68
2021/06/05 10:44:53;;;;;;;;;;;22.10;99.90;;;;;;10495392;28;20023;-69
2021/06/05 10:50:00;;;;;;;;;;;22.40;99.90;;;;;;10494577;28;19928;-69
2021/06/05 10:55:08;;;;;;;;;;;22.20;99.90;;;;;;10494785;28;20433;-69
2021/06/05 11:00:21;;;;;;;;;;;21.70;99.90;;;;;;10495324;28;20158;-68
2021/06/05 11:05:31;;;;;;;;;;;21.70;99.90;;;;;;10526606;28;20375;-69
2021/06/05 11:10:53;;;;;;;;;;;21.70;99.90;;;;;;10536505;28;19966;-68
2021/06/05 11:15:58;;;;;;;;;;;21.80;99.90;;;;;;10535667;28;20027;-68
2021/06/05 11:21:19;;;;;;;;;;;22.20;99.90;;;;;;10535923;28;20003;-69
2021/06/05 11:26:35;;;;;;;;;;;22.10;99.90;;;;;;10535782;28;20289;-69
2021/06/05 11:31:47;;;;;;;;;;;21.90;99.90;;;;;;10535291;28;20121;-68
2021/06/05 11:36:50;;;;;;;;;;;22.10;99.90;;;;;;10504035;28;20011;-69
2021/06/05 11:41:56;;;;;;;;;;;22.40;99.90;;;;;;10493154;28;20419;-69
2021/06/05 11:47:20;;;;;;;;;;;22.50;99.90;;;;;;10492880;28;19928;-69
2021/06/05 11:52:22;;;;;;;;;;;23.30;99.90;;;;;;10491893;28;19924;-68
2021/06/05 11:57:25;;;;;;;;;;;23.60;99.90;;;;;;10492457;28;20007;-68
2021/06/05 12:02:33;;;;;;;;;;;23.70;99.90;;;;;;10501252;28;20014;-68
2021/06/05 12:07:36;;;;;;;;;;;23.70;99.90;;;;;;10492095;28;19980;-69
2021/06/05 12:12:43;;;;;;;;;;;24.00;99.90;;;;;;10492463;28;19950;-69
2021/06/05 12:17:53;;;;;;;;;;;24.30;99.90;;;;;;10491349;28;20050;-69
2021/06/05 12:23:12;;;;;;;;;;;24.20;99.90;;;;;;10492712;28;19935;-68
2021/06/05 12:28:16;;;;;;;;;;;24.40;99.90;;;;;;10491034;28;19928;-68
2021/06/05 12:33:28;;;;;;;;;;;24.80;99.90;;;;;;10490987;28;20412;-69
2021/06/05 12:38:39;;;;;;;;;;;24.70;99.90;;;;;;10490292;28;20029;-69
2021/06/05 12:43:42;;;;;;;;;;;24.60;99.90;;;;;;10490460;28;19967;-68
2021/06/05 12:48:44;;;;;;;;;;;24.40;99.90;;;;;;10490494;28;20394;-69
2021/06/05 12:53:55;;;;;;;;;;;24.10;99.90;;;;;;10502099;28;19934;-69
2021/06/05 12:58:59;;;;;;;;;;;24.30;99.90;;;;;;10530362;28;20015;-69
2021/06/05 13:04:02;;;;;;;;;;;24.40;99.90;;;;;;10517701;28;19938;-69
2021/06/05 13:09:24;;;;;;;;;;;24.50;99.90;;;;;;10530757;28;20302;-69
2021/06/05 13:14:26;;;;;;;;;;;24.60;99.90;;;;;;10493980;28;20031;-68
2021/06/05 13:19:27;;;;;;;;;;;24.40;99.90;;;;;;10489327;28;19959;-69
2021/06/05 13:24:29;;;;;;;;;;;24.00;99.90;;;;;;10489167;28;20313;-68
2021/06/05 13:29:35;;;;;;;;;;;24.10;99.90;;;;;;10488294;28;19938;-68
2021/06/05 13:34:38;;;;;;;;;;;24.10;99.00;;;;;;10488853;28;19928;-69
2021/06/05 13:39:41;;;;;;;;;;;23.90;99.90;;;;;;10489049;28;20015;-69
2021/06/05 13:44:46;;;;;;;;;;;24.00;99.90;;;;;;10525969;28;20454;-69
2021/06/05 13:49:48;;;;;;;;;;;24.00;99.90;;;;;;10529914;28;20014;-68
2021/06/05 13:54:50;;;;;;;;;;;24.20;99.90;;;;;;10529677;28;19931;-68
2021/06/05 13:59:51;;;;;;;;;;;24.20;99.80;;;;;;10528983;28;19974;-68
2021/06/05 14:04:54;;;;;;;;;;;24.20;99.90;;;;;;10499891;28;20031;-67
2021/06/05 14:09:55;;;;;;;;;;;24.00;99.90;;;;;;10487445;28;20002;-68
2021/06/05 14:14:58;;;;;;;;;;;24.30;99.90;;;;;;10526125;28;20278;-68
2021/06/05 14:20:00;;;;;;;;;;;24.10;99.90;;;;;;10529421;28;19924;-67
2021/06/05 14:25:03;;;;;;;;;;;24.00;99.90;;;;;;10528860;28;19934;-68
2021/06/05 14:30:08;;;;;;;;;;;24.20;99.90;;;;;;10529410;28;19938;-68
2021/06/05 14:35:10;;;;;;;;;;;24.00;99.90;;;;;;10529393;28;19928;-68
2021/06/05 14:40:13;;;;;;;;;;;24.40;99.90;;;;;;10526099;28;20022;-68
2021/06/05 14:45:17;;;;;;;;;;;24.70;99.90;;;;;;10487499;28;20002;-67
2021/06/05 14:50:20;;;;;;;;;;;24.70;98.70;;;;;;10487012;28;20390;-68
2021/06/05 14:55:23;;;;;;;;;;;24.60;99.90;;;;;;10486278;28;20006;-67
2021/06/05 15:00:25;;;;;;;;;;;24.40;99.90;;;;;;10483570;28;19928;-66
2021/06/05 15:05:28;;;;;;;;;;;24.50;99.90;;;;;;10486793;28;19925;-67
2021/06/05 15:10:30;;;;;;;;;;;24.40;99.90;;;;;;10527936;28;19930;-67
2021/06/05 15:15:36;;;;;;;;;;;24.50;99.90;;;;;;10535615;28;20018;-68
2021/06/05 15:20:39;;;;;;;;;;;25.10;99.80;;;;;;10530534;28;19924;-69
2021/06/05 15:25:43;;;;;;;;;;;25.70;99.40;;;;;;10493457;28;20043;-69
2021/06/05 15:30:46;;;;;;;;;;;25.50;98.50;;;;;;10493239;28;19924;-69
2021/06/05 15:35:48;;;;;;;;;;;25.40;98.30;;;;;;10494129;28;20396;-68
2021/06/05 15:40:50;;;;;;;;;;;25.70;97.20;;;;;;10493565;28;19931;-68
2021/06/05 15:45:52;;;;;;;;;;;25.40;97.40;;;;;;10493316;28;19993;-68
2021/06/05 15:50:55;;;;;;;;;;;25.00;97.90;;;;;;10493984;28;20031;-69
2021/06/05 15:55:57;;;;;;;;;;;24.60;98.50;;;;;;10529805;28;20019;-69
2021/06/05 16:00:59;;;;;;;;;;;24.30;99.00;;;;;;10532333;28;20443;-68
2021/06/05 16:06:02;;;;;;;;;;;23.90;99.90;;;;;;10494819;28;20280;-68
2021/06/05 16:11:04;;;;;;;;;;;23.60;99.90;;;;;;10491744;28;20019;-68
2021/06/05 16:16:11;;;;;;;;;;;23.00;99.90;;;;;;10509170;28;20548;-69
2021/06/05 16:21:24;;;;;;;;;;;22.80;99.90;;;;;;10511155;28;20023;-69
2021/06/05 16:26:29;;;;;;;;;;;22.60;99.90;;;;;;10489491;28;20300;-69
2021/06/05 16:31:31;;;;;;;;;;;22.40;99.90;;;;;;10490976;28;20387;-68
2021/06/05 16:36:34;;;;;;;;;;;22.50;99.90;;;;;;10492023;28;19925;-69
2021/06/05 16:41:36;;;;;;;;;;;22.60;99.90;;;;;;10490328;28;20435;-69
2021/06/05 16:46:38;;;;;;;;;;;22.60;99.90;;;;;;10491550;28;20007;-68
2021/06/05 16:51:41;;;;;;;;;;;22.40;99.90;;;;;;10520264;28;19945;-69
2021/06/05 16:56:43;;;;;;;;;;;22.30;99.90;;;;;;10531281;28;19928;-68
2021/06/05 17:01:44;;;;;;;;;;;22.20;99.90;;;;;;10493422;28;19924;-68
2021/06/05 17:06:46;;;;;;;;;;;22.00;99.90;;;;;;10531329;28;19928;-68
2021/06/05 17:11:48;;;;;;;;;;;21.70;99.90;;;;;;10526785;28;19924;-67
2021/06/05 17:16:50;;;;;;;;;;;21.80;99.90;;;;;;10531567;28;19924;-67
2021/06/05 17:21:52;;;;;;;;;;;21.80;99.90;;;;;;10531168;28;19928;-68
2021/06/05 17:26:54;;;;;;;;;;;21.60;99.90;;;;;;10530885;28;20347;-69
2021/06/05 17:31:56;;;;;;;;;;;21.40;99.90;;;;;;10530546;28;19928;-68
2021/06/05 17:36:58;;;;;;;;;;;21.20;99.90;;;;;;10527682;28;19924;-68
2021/06/05 17:42:01;;;;;;;;;;;21.10;99.90;;;;;;10492902;28;20019;-69
2021/06/05 17:47:03;;;;;;;;;;;21.00;99.90;;;;;;10487708;28;19931;-69
2021/06/05 17:52:05;;;;;;;;;;;21.00;99.90;;;;;;10488218;28;20067;-68
2021/06/05 17:57:08;;;;;;;;;;;20.90;99.90;;;;;;10488076;28;20015;-68
2021/06/05 18:02:09;;;;;;;;;;;20.90;99.90;;;;;;10494988;28;19928;-68
2021/06/05 18:07:11;;;;;;;;;;;20.80;99.90;;;;;;10504500;28;19960;-68
2021/06/05 18:12:14;;;;;;;;;;;20.60;99.90;;;;;;10487247;28;20262;-69
2021/06/05 18:17:16;;;;;;;;;;;20.50;99.90;;;;;;10488388;28;19940;-68
2021/06/05 18:22:18;;;;;;;;;;;20.30;99.90;;;;;;10487226;28;19975;-68
2021/06/05 18:27:20;;;;;;;;;;;20.20;99.90;;;;;;10487632;28;19931;-67
2021/06/05 18:32:22;;;;;;;;;;;20.10;99.90;;;;;;10487419;28;20031;-68
2021/06/05 18:37:24;;;;;;;;;;;19.90;99.90;;;;;;10489015;28;20410;-69
2021/06/05 18:42:26;;;;;;;;;;;19.90;99.90;;;;;;10487197;28;19963;-68
2021/06/05 18:47:27;;;;;;;;;;;19.70;99.90;;;;;;10491370;28;19924;-68
2021/06/05 18:52:29;;;;;;;;;;;19.60;99.90;;;;;;10495640;28;19935;-68
2021/06/05 18:57:31;;;;;;;;;;;19.40;99.90;;;;;;10489752;28;19931;-69
2021/06/05 19:02:35;;;;;;;;;;;19.30;99.90;;;;;;10492701;28;20270;-68
2021/06/05 19:07:37;;;;;;;;;;;19.20;99.90;;;;;;10493045;28;20027;-68
2021/06/05 19:12:58;;;;;;;;;;;19.10;99.90;;;;;;10491977;28;20444;-68
2021/06/05 19:18:00;;;;;;;;;;;19.10;99.90;;;;;;10492148;28;19967;-68
2021/06/05 19:23:03;;;;;;;;;;;19.00;99.90;;;;;;10492376;28;20373;-68
2021/06/05 19:28:06;;;;;;;;;;;18.90;99.90;;;;;;10490898;28;19924;-68
2021/06/05 19:33:11;;;;;;;;;;;18.80;99.90;;;;;;10491396;28;19924;-69
2021/06/05 19:38:13;;;;;;;;;;;18.70;99.90;;;;;;10494803;28;19928;-69
2021/06/05 19:43:15;;;;;;;;;;;18.90;99.90;;;;;;10529263;28;19925;-68
2021/06/05 19:48:18;;;;;;;;;;;18.90;99.90;;;;;;10491317;28;20444;-68
2021/06/05 19:53:22;;;;;;;;;;;18.70;99.90;;;;;;10491530;28;20359;-69
2021/06/05 19:58:28;;;;;;;;;;;18.70;99.90;;;;;;10489811;28;19930;-69
2021/06/05 20:03:30;;;;;;;;;;;18.70;99.90;;;;;;10490478;28;20442;-68
2021/06/05 20:08:32;;;;;;;;;;;18.50;99.90;;;;;;10500711;28;19938;-68
2021/06/05 20:13:38;;;;;;;;;;;18.30;99.90;;;;;;10532396;28;20118;-68
2021/06/05 20:18:41;;;;;;;;;;;18.30;99.90;;;;;;10531993;28;20299;-69
2021/06/05 20:23:43;;;;;;;;;;;18.20;99.90;;;;;;10532640;28;19954;-68
2021/06/05 20:28:46;;;;;;;;;;;18.20;99.90;;;;;;10531507;28;19924;-69
2021/06/05 20:33:48;;;;;;;;;;;18.10;99.90;;;;;;10531182;28;19931;-69
2021/06/05 20:38:50;;;;;;;;;;;18.00;99.90;;;;;;10489692;28;19924;-68
2021/06/05 20:43:52;;;;;;;;;;;18.00;99.90;;;;;;10489704;28;19950;-68
2021/06/05 20:48:54;;;;;;;;;;;17.90;99.90;;;;;;10488520;28;20015;-68
2021/06/05 20:53:56;;;;;;;;;;;18.00;99.90;;;;;;10490140;28;20215;-68
2021/06/05 20:59:00;;;;;;;;;;;17.90;99.90;;;;;;10494055;28;19931;-68
2021/06/05 21:04:04;;;;;;;;;;;17.90;99.90;;;;;;10504881;28;20011;-59
2021/06/05 21:09:07;;;;;;;;;;;17.70;99.90;;;;;;10495747;28;20463;-59
2021/06/05 21:14:09;;;;;;;;;;;17.50;99.90;;;;;;10519146;28;20719;-58
2021/06/05 21:19:11;;;;;;;;;;;17.40;99.90;;;;;;10505428;28;19932;-58
2021/06/05 21:24:14;;;;;;;;;;;17.40;99.90;;;;;;10491852;28;20030;-59
2021/06/05 21:29:16;;;;;;;;;;;17.40;99.90;;;;;;10527957;28;19943;-59
2021/06/05 21:34:18;;;;;;;;;;;17.50;99.90;;;;;;10522923;28;19969;-59
2021/06/05 21:39:20;;;;;;;;;;;17.50;99.90;;;;;;10520180;28;19930;-59
2021/06/05 21:44:21;;;;;;;;;;;17.60;99.90;;;;;;10520404;28;19979;-59
2021/06/05 21:49:23;;;;;;;;;;;17.40;99.90;;;;;;10529491;28;19924;-59
2021/06/05 21:54:26;;;;;;;;;;;17.40;99.90;;;;;;10488288;28;20012;-59
2021/06/05 21:59:28;;;;;;;;;;;17.40;99.90;;;;;;10524080;28;20007;-59
2021/06/05 22:04:30;;;;;;;;;;;17.50;99.90;;;;;;10513026;28;19960;-59
2021/06/05 22:09:31;;;;;;;;;;;17.50;99.90;;;;;;10511877;28;19931;-59
2021/06/05 22:14:35;;;;;;;;;;;17.50;99.90;;;;;;10517525;28;20336;-58
2021/06/05 22:19:37;;;;;;;;;;;17.50;99.90;;;;;;10526871;28;20019;-59
2021/06/05 22:24:38;;;;;;;;;;;17.50;99.90;;;;;;10535617;28;19930;-59
2021/06/05 22:29:43;;;;;;;;;;;17.40;99.90;;;;;;10512995;28;19924;-59
2021/06/05 22:34:45;;;;;;;;;;;17.20;99.90;;;;;;10501807;28;19932;-59
2021/06/05 22:39:47;;;;;;;;;;;17.00;99.90;;;;;;10529481;28;20031;-59
2021/06/05 22:44:49;;;;;;;;;;;17.20;99.90;;;;;;10534060;28;19963;-59
2021/06/05 22:49:51;;;;;;;;;;;17.30;99.90;;;;;;10536419;28;19971;-59
2021/06/05 22:54:52;;;;;;;;;;;17.20;99.90;;;;;;10494568;28;20384;-59
2021/06/05 22:59:55;;;;;;;;;;;17.30;99.90;;;;;;10534927;28;20010;-59
2021/06/05 23:04:56;;;;;;;;;;;17.20;99.90;;;;;;10506392;28;20022;-59
2021/06/05 23:09:58;;;;;;;;;;;17.30;99.90;;;;;;10531998;28;20395;-59
2021/06/05 23:15:01;;;;;;;;;;;17.30;99.90;;;;;;10521848;28;20003;-59
2021/06/05 23:20:08;;;;;;;;;;;17.20;99.90;;;;;;10495880;28;19929;-59
2021/06/05 23:25:11;;;;;;;;;;;17.10;99.90;;;;;;10533346;28;20015;-59
2021/06/05 23:30:14;;;;;;;;;;;17.30;99.90;;;;;;10493949;28;19974;-59
2021/06/05 23:35:17;;;;;;;;;;;17.30;99.90;;;;;;10508768;28;20019;-59
2021/06/05 23:40:20;;;;;;;;;;;17.00;99.90;;;;;;10534192;28;19977;-59
2021/06/05 23:45:23;;;;;;;;;;;17.10;99.90;;;;;;10511564;28;20396;-58
2021/06/05 23:50:27;;;;;;;;;;;17.30;99.90;;;;;;10514794;28;19931;-59
2021/06/05 23:55:31;;;;;;;;;;;17.20;99.90;;;;;;10531136;28;20002;-59
